»·PEaware :: WAT169 KLAS-KDEN

WAT169 :: KLAS-KDEN

FLIGHT INFORMATION

Flight Status: Arrived
Operator:
Walker Air Transport
More flights by this operator :: More flights under this callsign
Pilot: Marty P. (27464)
Aircraft: BOEING 737-800
(B738)
More flights by this aircraft type
Origin: KLAS McCarran Intl
United States
Destination: KDEN Denver Intl
United States
More flights between these airports :: More routes between these airports
Route: STAAV8 STAAV TRALR NICLE BUMMP SSKII1
File this flight plan on PilotEdge
Remarks:
Altitude:
(Current/Filed)
39,000ft
Speed:
(Current/Filed)
480kts
Departed: 13-Sep-20 03:34 PM
Arrived: 13-Sep-20 05:04 PM
Distance/Time
Traveled:
544nm/1:30
Distance/Time
To Go:
Arrived

Flight Plot

Page will automatically refresh every two minutes.

Flight plan parsing failed; only flown route is shown


Map Options




Map Legend


Flown Route
Filed Route
Departure Airport
Arrival Airport
Navaid (VOR, NDB)
Fix

Horizontal Profiles

Position Reports

Time Latitude Longitude Heading Altitude Ground
Speed
13-Sep-20 15:05 36.079908 -115.147061 61 2191ft 0kts
13-Sep-20 15:06 36.079908 -115.147061 61 2191ft 0kts
13-Sep-20 15:07 36.079908 -115.147061 61 2191ft 0kts
13-Sep-20 15:08 36.079908 -115.147061 61 2191ft 0kts
13-Sep-20 15:09 36.079908 -115.147061 61 2191ft 0kts
13-Sep-20 15:10 36.079908 -115.147061 61 2191ft 0kts
13-Sep-20 15:11 36.079908 -115.147061 61 2191ft 0kts
13-Sep-20 15:12 36.079908 -115.147061 61 2191ft 0kts
13-Sep-20 15:13 36.079908 -115.147061 61 2191ft 0kts
13-Sep-20 15:14 36.079908 -115.147061 61 2191ft 0kts
13-Sep-20 15:15 36.079908 -115.147061 61 2191ft 0kts
13-Sep-20 15:16 36.079908 -115.147061 61 2191ft 0kts
13-Sep-20 15:17 36.079908 -115.147061 61 2191ft 0kts
13-Sep-20 15:18 36.079908 -115.147061 61 2191ft 0kts
13-Sep-20 15:19 36.079908 -115.147061 61 2191ft 0kts
13-Sep-20 15:20 36.079908 -115.147061 61 2191ft 0kts
13-Sep-20 15:21 36.079908 -115.147061 61 2191ft 0kts
13-Sep-20 15:22 36.079908 -115.147061 61 2191ft 0kts
13-Sep-20 15:23 36.079908 -115.147061 61 2191ft 0kts
13-Sep-20 15:24 36.079908 -115.147061 61 2191ft 0kts
13-Sep-20 15:25 36.079835 -115.147226 61 2191ft 2kts
13-Sep-20 15:26 36.079874 -115.147840 148 2191ft 0kts
13-Sep-20 15:27 36.079899 -115.147858 149 2191ft 0kts
13-Sep-20 15:28 36.078726 -115.147179 143 2191ft 18kts
13-Sep-20 15:29 36.078268 -115.140518 89 2191ft 22kts
13-Sep-20 15:30 36.078273 -115.133155 90 2191ft 22kts
13-Sep-20 15:31 36.078277 -115.124821 89 2191ft 25kts
13-Sep-20 15:32 36.077399 -115.121407 158 2191ft 0kts
13-Sep-20 15:33 36.076421 -115.126531 269 2191ft 93kts
13-Sep-20 15:34 36.076581 -115.187083 273 3691ft 211kts
13-Sep-20 15:35 36.083697 -115.269052 304 6592ft 262kts
13-Sep-20 15:36 36.148924 -115.292223 31 10050ft 265kts
13-Sep-20 15:37 36.188726 -115.208458 74 11592ft 335kts
13-Sep-20 15:38 36.197389 -115.082030 89 13589ft 382kts
13-Sep-20 15:39 36.198857 -114.949744 89 16447ft 392kts
13-Sep-20 15:40 36.200260 -114.812014 88 18793ft 407kts
13-Sep-20 15:41 36.199448 -114.669534 90 20881ft 421kts
13-Sep-20 15:42 36.197655 -114.522610 89 22739ft 434kts
13-Sep-20 15:43 36.195825 -114.371304 89 24434ft 446kts
13-Sep-20 15:44 36.198984 -114.216302 83 26021ft 455kts
13-Sep-20 15:45 36.216284 -114.059180 80 27475ft 464kts
13-Sep-20 15:46 36.235042 -113.900234 80 28821ft 471kts
13-Sep-20 15:47 36.254115 -113.738226 80 30247ft 474kts
13-Sep-20 15:48 36.272832 -113.577685 80 31757ft 471kts
13-Sep-20 15:49 36.291355 -113.417041 79 33160ft 469kts
13-Sep-20 15:50 36.310124 -113.260420 75 35482ft 440kts
13-Sep-20 15:51 36.354491 -113.129255 58 37729ft 403kts
13-Sep-20 15:52 36.409129 -113.006419 58 38244ft 413kts
13-Sep-20 15:53 36.464359 -112.881693 58 39243ft 407kts
13-Sep-20 15:54 36.519911 -112.755895 58 39243ft 426kts
13-Sep-20 15:55 36.578063 -112.623674 58 39250ft 444kts
13-Sep-20 15:56 36.638137 -112.486538 58 39257ft 459kts
13-Sep-20 15:57 36.699914 -112.344899 59 39255ft 471kts
13-Sep-20 15:58 36.762641 -112.200373 59 39255ft 477kts
13-Sep-20 15:59 36.825807 -112.054205 59 39254ft 480kts
13-Sep-20 16:00 36.889096 -111.907115 59 39232ft 482kts
13-Sep-20 16:01 36.952203 -111.759769 59 39219ft 482kts
13-Sep-20 16:03 37.015151 -111.612139 59 39219ft 482kts
13-Sep-20 16:04 37.078075 -111.463890 59 39219ft 482kts
13-Sep-20 16:05 37.140814 -111.315395 60 39219ft 482kts
13-Sep-20 16:06 37.203343 -111.166670 60 39201ft 483kts
13-Sep-20 16:07 37.265555 -111.018043 60 39201ft 483kts
13-Sep-20 16:08 37.327946 -110.868305 60 39201ft 483kts
13-Sep-20 16:09 37.389778 -110.719216 60 39201ft 483kts
13-Sep-20 16:10 37.451745 -110.569096 60 39246ft 482kts
13-Sep-20 16:11 37.512990 -110.420029 60 39324ft 481kts
13-Sep-20 16:12 37.573609 -110.271764 61 39341ft 481kts
13-Sep-20 16:13 37.634463 -110.122216 61 39412ft 480kts
13-Sep-20 16:14 37.695354 -109.971892 61 39411ft 481kts
13-Sep-20 16:15 37.755911 -109.821682 61 39411ft 481kts
13-Sep-20 16:16 37.816379 -109.670974 61 39411ft 481kts
13-Sep-20 16:17 37.876827 -109.519582 61 39411ft 482kts
13-Sep-20 16:18 37.936906 -109.368384 61 39411ft 482kts
13-Sep-20 16:19 37.996965 -109.216456 62 39411ft 483kts
13-Sep-20 16:20 38.056699 -109.064632 62 39411ft 483kts
13-Sep-20 16:20 38.106678 -108.937040 62 39438ft 483kts
13-Sep-20 16:22 38.173412 -108.756729 62 39439ft 484kts
13-Sep-20 16:22 38.222516 -108.629047 62 39439ft 484kts
13-Sep-20 16:23 38.282157 -108.475641 62 39404ft 485kts
13-Sep-20 16:24 38.341387 -108.323247 62 39342ft 486kts
13-Sep-20 16:26 38.410947 -108.143479 62 39292ft 486kts
13-Sep-20 16:26 38.460491 -108.014858 62 39321ft 485kts
13-Sep-20 16:27 38.518583 -107.859525 63 39329ft 485kts
13-Sep-20 16:28 38.576810 -107.704423 62 39329ft 485kts
13-Sep-20 16:29 38.635037 -107.549243 62 39329ft 486kts
13-Sep-20 16:30 38.693697 -107.392989 62 39329ft 486kts
13-Sep-20 16:31 38.751927 -107.238726 63 39329ft 487kts
13-Sep-20 16:32 38.810796 -107.082446 62 39329ft 488kts
13-Sep-20 16:33 38.869588 -106.925690 62 39447ft 486kts
13-Sep-20 16:34 38.927852 -106.769573 62 39610ft 485kts
13-Sep-20 16:35 38.985953 -106.613075 62 39507ft 476kts
13-Sep-20 16:36 39.039614 -106.465387 63 37547ft 456kts
13-Sep-20 16:37 39.092888 -106.318669 63 34284ft 460kts
13-Sep-20 16:38 39.146695 -106.170598 64 30987ft 459kts
13-Sep-20 16:39 39.201024 -106.019734 64 27578ft 474kts
13-Sep-20 16:40 39.256521 -105.865552 64 24068ft 471kts
13-Sep-20 16:41 39.309909 -105.716795 64 21063ft 441kts
13-Sep-20 16:42 39.357785 -105.583942 64 20250ft 377kts
13-Sep-20 16:43 39.400158 -105.467365 64 18122ft 345kts
13-Sep-20 16:44 39.447424 -105.364822 54 17030ft 328kts
13-Sep-20 16:45 39.501500 -105.265519 54 15470ft 338kts
13-Sep-20 16:46 39.552659 -105.171033 54 15382ft 319kts
13-Sep-20 16:47 39.603404 -105.076788 54 14829ft 312kts
13-Sep-20 16:48 39.651784 -104.986842 54 14128ft 302kts
13-Sep-20 16:49 39.699570 -104.897755 54 13430ft 300kts
13-Sep-20 16:50 39.766185 -104.840519 3 12793ft 298kts
13-Sep-20 16:51 39.846791 -104.839847 359 11750ft 283kts
13-Sep-20 16:52 39.922194 -104.827049 22 11004ft 261kts
13-Sep-20 16:53 39.992095 -104.818934 358 10681ft 265kts
13-Sep-20 16:54 40.066712 -104.820486 357 8525ft 255kts
13-Sep-20 16:55 40.133800 -104.821646 5 6991ft 218kts
13-Sep-20 16:56 40.158614 -104.762278 93 6977ft 197kts
13-Sep-20 16:57 40.124876 -104.708521 137 7009ft 194kts
13-Sep-20 16:58 40.076398 -104.684296 182 7020ft 195kts
13-Sep-20 16:59 40.023018 -104.685459 180 6962ft 180kts
13-Sep-20 17:00 39.975710 -104.685919 179 6992ft 168kts
13-Sep-20 17:01 39.927687 -104.686458 179 6076ft 173kts
13-Sep-20 17:02 39.882495 -104.686967 180 5444ft 109kts
13-Sep-20 17:03 39.868631 -104.687146 180 5444ft 36kts
13-Sep-20 17:04 39.864275 -104.685679 90 5444ft 0kts
13-Sep-20 17:05 39.864275 -104.685639 90 5444ft 3kts
13-Sep-20 17:06 39.864185 -104.680389 90 5444ft 16kts
13-Sep-20 17:07 39.863605 -104.677845 180 5444ft 1kts
13-Sep-20 17:08 39.863603 -104.677844 180 5444ft 0kts

Navigation Log

Ident Type
Flight plan parsing failed, navigation log unavailable